Time;durP1;ratioP1;P1;durP2;ratioP2;P2;SDS_P1;SDS_P2;PMS_P1;PMS_P2;Temp;Humidity;BMP_temperature;BMP_pressure;BME280_temperature;BME280_humidity;BME280_pressure;Samples;Min_cycle;Max_cycle;Signal;HPM_P1;HPM_P2
2021/12/06 00:00:29;;;;;;;33.80;17.40;;;;;;;2.58;87.31;98661.28;4484414;32;33067;-70
2021/12/06 00:03:00;;;;;;;36.20;17.60;;;;;;;2.93;85.29;98657.97;4484903;32;33764;-69
2021/12/06 00:05:28;;;;;;;32.50;16.15;;;;;;;2.78;85.77;98668.25;4484748;32;34220;-70
2021/12/06 00:07:56;;;;;;;38.00;17.75;;;;;;;2.65;87.10;98677.25;4484894;32;33833;-69
2021/12/06 00:10:23;;;;;;;36.00;16.08;;;;;;;3.12;85.26;98680.19;4482915;32;34260;-71
2021/12/06 00:12:51;;;;;;;40.63;18.52;;;;;;;2.69;86.92;98683.00;4483870;32;34040;-70
2021/12/06 00:15:18;;;;;;;35.33;16.35;;;;;;;2.64;86.83;98681.00;4484618;32;34162;-69
2021/12/06 00:17:47;;;;;;;33.75;16.92;;;;;;;3.04;85.51;98693.88;4484462;32;34656;-70
2021/12/06 00:20:15;;;;;;;30.10;15.35;;;;;;;2.88;86.48;98695.34;4498925;31;33661;-70
2021/12/06 00:22:43;;;;;;;37.88;17.50;;;;;;;3.32;83.90;98687.94;4500472;31;34844;-69
2021/12/06 00:25:11;;;;;;;35.58;17.20;;;;;;;3.52;82.96;98682.31;4499961;31;35073;-70
2021/12/06 00:27:39;;;;;;;34.60;16.60;;;;;;;3.16;84.06;98670.66;4500560;31;33965;-70
2021/12/06 00:30:11;;;;;;;34.42;17.05;;;;;;;3.31;83.22;98680.97;4500958;31;33516;-69
2021/12/06 00:32:40;;;;;;;34.28;16.77;;;;;;;3.21;83.71;98680.69;4486736;31;34395;-67
2021/12/06 00:35:13;;;;;;;36.10;16.77;;;;;;;3.43;83.64;98676.44;4500243;31;33889;-67
2021/12/06 00:37:52;;;;;;;32.50;16.90;;;;;;;3.19;83.87;98682.78;4500408;31;33836;-69
2021/12/06 00:40:21;;;;;;;29.73;14.80;;;;;;;3.32;82.86;98684.47;4500983;31;34259;-69
2021/12/06 00:42:49;;;;;;;32.83;16.95;;;;;;;3.41;82.75;98686.59;4500576;31;34628;-67
2021/12/06 00:45:17;;;;;;;31.83;15.57;;;;;;;3.04;84.81;98677.81;4485890;31;33966;-67
2021/12/06 00:47:45;;;;;;;35.00;16.05;;;;;;;3.60;82.94;98681.16;4500366;31;33919;-67
2021/12/06 00:50:15;;;;;;;31.42;15.10;;;;;;;3.67;80.90;98688.06;4500761;31;34447;-67
2021/12/06 00:52:43;;;;;;;30.37;15.30;;;;;;;3.33;83.17;98699.50;4486601;31;33756;-68
2021/12/06 00:55:11;;;;;;;30.98;14.95;;;;;;;3.36;83.00;98705.22;4499988;31;35055;-66
2021/12/06 00:57:39;;;;;;;2.97;1.52;;;;;;;4.05;80.40;98707.47;4500050;31;34688;-68
2021/12/06 01:00:13;;;;;;;27.90;15.18;;;;;;;4.21;80.17;98697.91;4500177;31;34292;-68
2021/12/06 01:02:41;;;;;;;25.52;14.23;;;;;;;3.98;80.59;98696.88;4500423;31;33672;-68
2021/12/06 01:05:09;;;;;;;28.87;15.60;;;;;;;4.02;80.22;98713.34;4499712;31;35084;-67
2021/12/06 01:07:36;;;;;;;29.05;14.65;;;;;;;4.28;79.06;98710.19;4500472;31;33756;-67
2021/12/06 01:10:06;;;;;;;26.75;13.85;;;;;;;4.20;79.33;98710.53;4500134;31;33558;-66
2021/12/06 01:12:35;;;;;;;25.62;13.68;;;;;;;4.06;79.98;98685.78;4500135;31;34663;-66
2021/12/06 01:15:04;;;;;;;23.45;13.38;;;;;;;4.24;78.80;98684.84;4500394;31;33874;-68
2021/12/06 01:17:32;;;;;;;21.75;12.68;;;;;;;3.98;80.05;98671.91;4500031;31;34139;-66
2021/12/06 01:19:59;;;;;;;21.52;12.82;;;;;;;4.12;79.74;98675.97;4499958;31;33546;-67
2021/12/06 01:22:33;;;;;;;22.05;12.10;;;;;;;4.42;78.68;98670.47;4500366;31;34790;-67
2021/12/06 01:25:06;;;;;;;23.25;12.45;;;;;;;4.52;78.36;98677.94;4499486;31;33968;-67
2021/12/06 01:27:47;;;;;;;21.17;11.25;;;;;;;4.76;77.07;98678.72;4500153;31;33940;-67
2021/12/06 01:41:07;;;;;;;23.83;12.85;;;;;;;3.82;79.98;98682.28;4499869;31;33087;-66
2021/12/06 01:43:35;;;;;;;27.92;13.38;;;;;;;4.43;77.56;98680.19;4499880;31;33967;-68
2021/12/06 01:46:03;;;;;;;21.62;12.95;;;;;;;3.77;80.27;98679.44;4499036;31;34176;-68
2021/12/06 01:48:31;;;;;;;22.55;12.07;;;;;;;4.18;77.89;98675.03;4499850;31;33999;-67
2021/12/06 01:50:58;;;;;;;22.65;11.90;;;;;;;4.26;78.58;98685.44;4500125;31;34070;-68
2021/12/06 01:53:26;;;;;;;22.33;12.07;;;;;;;4.38;77.48;98679.25;4499635;31;34093;-67
2021/12/06 01:55:54;;;;;;;22.70;11.55;;;;;;;4.25;77.64;98680.28;4499375;31;34415;-67
2021/12/06 01:58:22;;;;;;;20.90;12.05;;;;;;;4.39;77.06;98695.13;4499907;31;33956;-68
2021/12/06 02:00:52;;;;;;;25.98;13.18;;;;;;;4.50;76.30;98696.16;4499654;31;33057;-67
2021/12/06 02:03:20;;;;;;;21.98;12.32;;;;;;;4.39;76.55;98703.19;4499860;31;33761;-70
2021/12/06 02:05:49;;;;;;;23.98;13.00;;;;;;;4.68;74.71;98693.31;4499570;31;34351;-67
2021/12/06 02:08:18;;;;;;;1.58;1.35;;;;;;;4.05;76.00;98686.00;4499675;31;35027;-66
2021/12/06 02:10:45;;;;;;;21.30;11.98;;;;;;;3.84;77.70;98685.50;4499678;31;33759;-68
2021/12/06 02:13:13;;;;;;;23.80;12.25;;;;;;;3.58;78.50;98681.38;4499787;31;33700;-67
2021/12/06 02:15:52;;;;;;;20.80;12.45;;;;;;;3.41;78.37;98677.72;4498891;31;34092;-67
2021/12/06 02:18:40;;;;;;;22.95;11.60;;;;;;;3.20;79.15;98674.50;4499535;31;34847;-69
2021/12/06 02:21:19;;;;;;;22.17;11.70;;;;;;;3.19;79.56;98672.06;4499524;31;33212;-66
2021/12/06 02:23:47;;;;;;;22.92;12.90;;;;;;;3.95;76.50;98670.47;4499776;31;33937;-67
2021/12/06 02:26:17;;;;;;;21.37;11.77;;;;;;;3.76;76.69;98664.41;4498587;31;35312;-67
2021/12/06 02:28:45;;;;;;;24.95;13.13;;;;;;;3.89;75.82;98661.50;4485535;31;34299;-67
2021/12/06 02:31:14;;;;;;;21.80;12.82;;;;;;;3.53;77.35;98673.22;4499586;31;33631;-68
2021/12/06 02:33:44;;;;;;;22.87;13.23;;;;;;;3.41;77.85;98675.03;4501200;31;33333;-66
2021/12/06 02:36:12;;;;;;;21.20;11.77;;;;;;;3.52;77.71;98670.75;4500757;31;33729;-67
2021/12/06 02:38:40;;;;;;;20.62;11.25;;;;;;;3.84;76.01;98668.59;4501173;31;33723;-68
2021/12/06 02:41:09;;;;;;;19.50;10.82;;;;;;;3.81;76.29;98671.75;4501582;31;33688;-68
2021/12/06 02:43:37;;;;;;;19.75;11.27;;;;;;;4.26;74.33;98679.25;4501593;31;34577;-67
2021/12/06 02:46:05;;;;;;;16.92;10.48;;;;;;;3.94;75.51;98684.94;4500283;31;34199;-67
2021/12/06 02:48:33;;;;;;;17.40;10.10;;;;;;;3.85;75.83;98680.97;4501239;31;34062;-67
2021/12/06 02:51:04;;;;;;;17.00;10.20;;;;;;;3.36;77.93;98682.97;4501243;31;33720;-69
2021/12/06 02:53:37;;;;;;;16.85;10.13;;;;;;;3.40;77.73;98684.13;4500963;31;33874;-70
2021/12/06 02:56:18;;;;;;;17.33;9.65;;;;;;;3.64;77.18;98687.69;4500836;31;35218;-66
2021/12/06 02:58:56;;;;;;;17.40;10.68;;;;;;;3.21;78.37;98686.03;4500875;31;33849;-68
2021/12/06 03:01:38;;;;;;;16.52;10.10;;;;;;;3.22;78.35;98696.56;4501159;31;33818;-66
2021/12/06 03:04:08;;;;;;;18.10;10.82;;;;;;;3.29;78.37;98691.91;4500902;31;33939;-68
2021/12/06 03:06:36;;;;;;;16.02;9.98;;;;;;;2.77;80.26;98709.47;4500689;31;34207;-67
2021/12/06 03:09:16;;;;;;;17.30;9.93;;;;;;;2.97;78.99;98711.91;4501158;31;33630;-70
2021/12/06 03:11:59;;;;;;;19.60;10.88;;;;;;;3.37;77.61;98703.34;4501081;31;33628;-69
2021/12/06 03:14:34;;;;;;;17.00;10.07;;;;;;;3.27;78.20;98701.22;4501157;31;33756;-69
2021/12/06 03:17:05;;;;;;;16.85;9.48;;;;;;;3.47;76.96;98692.91;4486736;31;34268;-66
2021/12/06 03:19:33;;;;;;;15.70;9.20;;;;;;;3.37;77.56;98692.63;4501241;31;33985;-67
2021/12/06 03:22:01;;;;;;;16.17;9.85;;;;;;;3.55;76.56;98689.09;4501119;31;33212;-67
2021/12/06 03:24:29;;;;;;;16.58;9.85;;;;;;;3.32;77.60;98703.22;4501383;31;34452;-67
2021/12/06 03:26:56;;;;;;;15.82;9.27;;;;;;;3.51;76.86;98702.12;4500697;31;33658;-67
2021/12/06 03:29:27;;;;;;;16.98;9.57;;;;;;;4.07;74.82;98705.37;4501100;31;34079;-69
2021/12/06 03:31:55;;;;;;;17.77;9.57;;;;;;;3.78;75.40;98707.09;4487087;31;33553;-69
2021/12/06 03:34:26;;;;;;;17.52;9.77;;;;;;;3.84;74.25;98703.47;4500811;31;33793;-69
2021/12/06 03:36:57;;;;;;;15.10;9.43;;;;;;;3.85;74.61;98715.88;4486920;31;35022;-66
2021/12/06 03:39:29;;;;;;;17.17;10.07;;;;;;;3.35;76.60;98716.16;4500800;31;34623;-67
2021/12/06 03:42:00;;;;;;;16.30;10.05;;;;;;;3.62;75.83;98717.44;4500618;31;34313;-67
2021/12/06 03:44:29;;;;;;;16.10;9.60;;;;;;;3.63;76.23;98715.59;4499867;31;34261;-67
2021/12/06 03:47:08;;;;;;;17.45;9.73;;;;;;;3.42;76.67;98727.63;4500511;31;34173;-67
2021/12/06 03:49:36;;;;;;;16.10;9.77;;;;;;;3.47;76.39;98717.84;4500797;31;34715;-67
2021/12/06 03:52:05;;;;;;;0.85;0.70;;;;;;;3.74;75.15;98714.78;4500596;31;33557;-69
2021/12/06 03:54:34;;;;;;;16.33;10.13;;;;;;;3.87;74.70;98713.78;4500654;31;33903;-66
2021/12/06 03:57:02;;;;;;;17.27;10.30;;;;;;;3.73;75.91;98712.31;4500108;31;33803;-68
2021/12/06 03:59:29;;;;;;;16.70;9.70;;;;;;;3.53;76.43;98715.31;4500363;31;34601;-69
2021/12/06 04:01:57;;;;;;;14.07;9.30;;;;;;;3.77;75.32;98714.31;4500638;31;34482;-66
2021/12/06 04:04:25;;;;;;;16.05;9.65;;;;;;;3.57;75.82;98709.25;4500781;31;33920;-67
2021/12/06 04:06:55;;;;;;;15.48;9.05;;;;;;;2.89;78.56;98713.03;4499976;31;34193;-68
2021/12/06 04:09:40;;;;;;;14.95;8.93;;;;;;;2.77;79.43;98714.84;4500806;31;34068;-68
2021/12/06 04:12:10;;;;;;;13.95;8.50;;;;;;;2.94;78.59;98707.84;4500671;31;34177;-67
2021/12/06 04:14:39;;;;;;;14.20;8.65;;;;;;;3.46;76.42;98702.81;4500472;31;34642;-68
2021/12/06 04:17:07;;;;;;;15.35;9.00;;;;;;;3.31;77.04;98706.97;4500011;31;33741;-67
2021/12/06 04:19:35;;;;;;;0.70;0.70;;;;;;;2.87;78.54;98707.91;4500235;31;33640;-66
2021/12/06 04:22:03;;;;;;;13.55;8.98;;;;;;;3.42;76.46;98708.88;4500094;31;33073;-67
2021/12/06 04:24:32;;;;;;;14.25;8.45;;;;;;;3.22;76.82;98711.81;4500166;31;33846;-66
2021/12/06 04:27:05;;;;;;;13.43;8.05;;;;;;;3.33;76.56;98713.72;4499651;31;33881;-66
2021/12/06 04:29:33;;;;;;;12.60;7.90;;;;;;;3.33;76.88;98718.28;4500266;31;33851;-67
2021/12/06 04:32:01;;;;;;;12.48;7.80;;;;;;;3.04;77.57;98726.84;4500402;31;34262;-67
2021/12/06 04:34:29;;;;;;;12.85;8.05;;;;;;;3.64;75.74;98725.25;4500240;31;33706;-67
2021/12/06 04:36:56;;;;;;;12.50;7.93;;;;;;;3.40;76.27;98719.00;4498421;31;33816;-66
2021/12/06 04:39:24;;;;;;;12.45;7.87;;;;;;;2.72;79.12;98728.06;4500382;31;34928;-66
2021/12/06 04:41:53;;;;;;;13.30;8.82;;;;;;;2.93;77.93;98730.28;4500192;31;33777;-66
2021/12/06 04:44:20;;;;;;;12.63;8.20;;;;;;;2.87;78.26;98718.63;4500727;31;33883;-67
2021/12/06 04:46:48;;;;;;;13.38;8.00;;;;;;;3.22;77.20;98715.31;4500161;31;35034;-66
2021/12/06 04:49:16;;;;;;;13.68;8.45;;;;;;;2.61;79.37;98721.59;4500345;31;33960;-65
2021/12/06 04:51:47;;;;;;;14.00;8.50;;;;;;;3.07;77.64;98736.34;4500734;31;33564;-66
2021/12/06 04:54:18;;;;;;;11.90;7.55;;;;;;;3.48;76.05;98743.63;4500280;31;34306;-66
2021/12/06 04:56:50;;;;;;;13.23;8.38;;;;;;;3.00;77.68;98741.78;4499134;31;34292;-66
2021/12/06 04:59:39;;;;;;;12.85;8.38;;;;;;;2.68;79.36;98743.78;4500370;31;33810;-66
2021/12/06 05:02:19;;;;;;;12.68;7.87;;;;;;;2.37;80.22;98747.38;4500089;31;33600;-66
2021/12/06 05:04:50;;;;;;;12.05;8.30;;;;;;;2.73;79.56;98751.97;4485853;31;34006;-64
2021/12/06 05:07:27;;;;;;;13.23;8.13;;;;;;;2.64;79.54;98761.34;4500042;31;33757;-66
2021/12/06 05:09:55;;;;;;;14.52;8.73;;;;;;;2.81;78.83;98758.91;4499892;31;34831;-65
2021/12/06 05:12:27;;;;;;;15.55;8.95;;;;;;;3.24;77.21;98761.47;4485956;31;32981;-67
2021/12/06 05:14:55;;;;;;;14.55;9.07;;;;;;;3.60;75.31;98761.63;4499930;31;34964;-66
2021/12/06 05:17:23;;;;;;;15.00;8.88;;;;;;;3.26;76.56;98767.44;4499700;31;34208;-65
2021/12/06 05:19:51;;;;;;;17.45;9.70;;;;;;;2.93;77.31;98767.81;4500117;31;33689;-66
2021/12/06 05:22:19;;;;;;;17.55;10.32;;;;;;;2.49;79.49;98766.22;4500503;31;33482;-66
2021/12/06 05:24:47;;;;;;;17.35;10.48;;;;;;;2.96;77.31;98778.09;4499257;31;34731;-66
2021/12/06 05:27:15;;;;;;;21.30;11.20;;;;;;;3.06;77.01;98782.91;4499072;31;34087;-66
2021/12/06 05:29:46;;;;;;;0.88;0.88;;;;;;;3.58;75.20;98777.94;4499753;31;34203;-67
2021/12/06 05:32:13;;;;;;;17.25;10.18;;;;;;;3.37;75.86;98783.78;4499588;31;33834;-67
2021/12/06 05:34:43;;;;;;;16.40;9.93;;;;;;;3.68;74.31;98770.16;4499872;31;34836;-67
2021/12/06 05:37:14;;;;;;;14.32;9.20;;;;;;;3.08;76.98;98772.78;4499422;31;34312;-65
2021/12/06 05:39:42;;;;;;;14.25;9.10;;;;;;;3.73;74.60;98772.16;4499803;31;33829;-66
2021/12/06 05:42:11;;;;;;;17.12;10.48;;;;;;;2.78;78.12;98772.72;4499861;31;33854;-67
2021/12/06 05:44:40;;;;;;;0.68;0.68;;;;;;;3.17;76.74;98776.00;4499761;31;35151;-65
2021/12/06 05:47:09;;;;;;;15.80;9.88;;;;;;;3.20;76.38;98776.38;4485102;31;34305;-66
2021/12/06 05:49:36;;;;;;;18.48;9.98;;;;;;;3.59;75.31;98773.41;4499813;31;34206;-66
2021/12/06 05:52:04;;;;;;;19.67;10.40;;;;;;;3.87;73.49;98775.47;4499839;31;33698;-65
2021/12/06 05:54:32;;;;;;;14.30;9.05;;;;;;;3.46;74.92;98780.56;4499320;31;34048;-66
2021/12/06 05:57:00;;;;;;;14.70;8.98;;;;;;;3.15;76.54;98778.06;4499219;31;33767;-65
2021/12/06 05:59:28;;;;;;;15.65;8.98;;;;;;;3.29;76.49;98784.94;4499431;31;33622;-66
2021/12/06 06:01:55;;;;;;;14.23;9.23;;;;;;;3.36;75.91;98787.53;4499284;31;34314;-66
2021/12/06 06:04:26;;;;;;;16.65;9.95;;;;;;;3.66;74.94;98779.50;4485087;31;33335;-66
2021/12/06 06:06:54;;;;;;;16.58;10.18;;;;;;;3.80;74.52;98785.47;4499533;31;34027;-66
2021/12/06 06:09:21;;;;;;;0.70;0.70;;;;;;;3.25;76.15;98803.31;4501309;31;34028;-66
2021/12/06 06:11:49;;;;;;;20.15;10.48;;;;;;;2.99;77.36;98811.66;4501246;31;34770;-66
2021/12/06 06:14:17;;;;;;;18.62;10.63;;;;;;;3.00;77.29;98818.63;4501468;31;33887;-67
2021/12/06 06:16:50;;;;;;;15.73;10.43;;;;;;;3.14;77.26;98812.09;4500610;31;34243;-67
2021/12/06 06:19:21;;;;;;;2.08;1.52;;;;;;;3.14;77.15;98820.16;4500669;31;33857;-67
2021/12/06 06:21:49;;;;;;;20.17;11.25;;;;;;;2.85;78.59;98822.53;4489045;31;33847;-66
2021/12/06 06:24:18;;;;;;;17.77;10.05;;;;;;;2.99;78.21;98820.50;4485536;31;33433;-65
2021/12/06 06:26:45;;;;;;;18.62;10.43;;;;;;;3.12;77.21;98824.09;4485251;32;34609;-66
2021/12/06 06:29:13;;;;;;;1.50;0.93;;;;;;;3.46;76.33;98825.34;4485426;32;34403;-66
2021/12/06 06:31:41;;;;;;;19.02;10.90;;;;;;;3.51;75.96;98820.13;4485467;32;33322;-66
2021/12/06 06:34:09;;;;;;;0.60;0.60;;;;;;;3.62;75.15;98824.72;4484390;31;34740;-68
2021/12/06 06:36:36;;;;;;;19.33;10.77;;;;;;;3.59;75.76;98827.06;4480998;32;34700;-68
2021/12/06 06:39:06;;;;;;;20.45;10.98;;;;;;;3.43;75.99;98837.31;4485178;32;34020;-66
2021/12/06 06:41:35;;;;;;;20.67;10.52;;;;;;;3.30;76.57;98842.84;4485221;32;33537;-66
2021/12/06 06:44:03;;;;;;;21.50;12.05;;;;;;;3.24;77.16;98844.56;4471074;32;33862;-71
2021/12/06 06:46:32;;;;;;;18.52;11.35;;;;;;;3.08;77.09;98845.97;4483005;32;34664;-68
2021/12/06 06:48:59;;;;;;;23.10;12.57;;;;;;;3.27;77.60;98849.47;4470663;32;33642;-68
2021/12/06 06:51:28;;;;;;;1.15;1.08;;;;;;;3.22;77.90;98857.37;4484505;32;33298;-69
2021/12/06 06:53:56;;;;;;;22.60;12.45;;;;;;;3.04;78.55;98865.41;4485233;32;34015;-68
2021/12/06 06:56:23;;;;;;;24.00;13.05;;;;;;;2.82;78.99;98867.66;4484692;32;33891;-69
2021/12/06 06:58:51;;;;;;;27.10;15.07;;;;;;;2.77;79.12;98871.00;4484463;32;33652;-71
2021/12/06 07:01:19;;;;;;;25.90;13.20;;;;;;;3.41;76.99;98878.81;4470781;32;34310;-72
2021/12/06 07:03:50;;;;;;;26.50;14.73;;;;;;;3.38;76.92;98882.78;4483465;32;33946;-69
2021/12/06 07:06:17;;;;;;;24.23;12.77;;;;;;;3.50;76.98;98882.84;4484251;32;33908;-70
2021/12/06 07:08:45;;;;;;;23.08;13.40;;;;;;;3.44;76.58;98889.94;4484968;32;34158;-70
2021/12/06 07:11:13;;;;;;;24.95;12.90;;;;;;;3.39;77.26;98897.00;4484911;32;33499;-68
2021/12/06 07:13:40;;;;;;;21.48;12.18;;;;;;;3.39;77.00;98897.00;4484651;32;34047;-69
2021/12/06 07:16:09;;;;;;;22.92;13.45;;;;;;;3.59;76.27;98907.50;4484572;32;34263;-71
2021/12/06 07:18:37;;;;;;;26.85;13.18;;;;;;;3.97;74.52;98901.84;4484501;32;34033;-70
2021/12/06 07:21:05;;;;;;;27.65;14.15;;;;;;;3.89;75.04;98911.06;4457024;32;33268;-70
2021/12/06 07:23:38;;;;;;;27.50;14.00;;;;;;;3.47;76.57;98910.91;4484785;32;34548;-69
2021/12/06 07:26:10;;;;;;;28.58;15.52;;;;;;;3.52;76.17;98912.13;4484397;32;33732;-70
2021/12/06 07:28:38;;;;;;;29.40;15.02;;;;;;;3.24;77.48;98911.59;4484383;32;34730;-69
2021/12/06 07:31:06;;;;;;;30.52;15.52;;;;;;;3.64;76.25;98918.37;4484754;32;34476;-68
2021/12/06 07:33:34;;;;;;;4.60;1.55;;;;;;;3.49;76.73;98913.38;4484556;32;34604;-71
2021/12/06 07:36:03;;;;;;;28.33;15.02;;;;;;;3.78;75.71;98913.66;4481900;32;33799;-68
2021/12/06 07:38:31;;;;;;;30.17;15.25;;;;;;;3.74;75.82;98916.00;4484815;32;33756;-68
2021/12/06 07:40:59;;;;;;;33.55;17.58;;;;;;;3.78;76.19;98916.34;4484573;32;34315;-67
2021/12/06 07:43:26;;;;;;;2.08;1.62;;;;;;;3.68;75.55;98919.56;4485247;32;34332;-68
2021/12/06 07:45:55;;;;;;;1.58;1.48;;;;;;;4.06;74.46;98918.47;4484604;32;35059;-70
2021/12/06 07:48:22;;;;;;;31.17;15.95;;;;;;;3.90;75.66;98920.72;4484300;32;33559;-72
2021/12/06 07:50:50;;;;;;;34.58;18.05;;;;;;;3.45;76.78;98925.59;4483517;32;33348;-70
2021/12/06 07:53:17;;;;;;;39.88;19.42;;;;;;;3.41;77.65;98921.72;4484397;32;33762;-69
2021/12/06 07:55:44;;;;;;;37.00;18.83;;;;;;;3.38;77.56;98927.53;4483983;32;35117;-69
2021/12/06 07:58:12;;;;;;;34.03;17.05;;;;;;;3.72;76.55;98934.19;4484426;32;34522;-72
2021/12/06 08:00:44;;;;;;;34.47;17.05;;;;;;;3.59;76.59;98926.28;4483605;32;33781;-70
2021/12/06 08:03:12;;;;;;;32.03;15.85;;;;;;;3.48;77.89;98933.22;4484552;32;34890;-69
2021/12/06 08:05:42;;;;;;;1.80;1.48;;;;;;;3.02;79.23;98929.94;4483930;32;35016;-70
2021/12/06 08:08:11;;;;;;;37.15;19.08;;;;;;;3.31;78.87;98927.59;4484249;32;33571;-69
2021/12/06 08:10:44;;;;;;;34.92;18.60;;;;;;;3.02;79.21;98921.91;4482495;32;33576;-69
2021/12/06 08:13:17;;;;;;;33.60;17.55;;;;;;;3.11;79.19;98925.13;4483946;32;33732;-68
2021/12/06 08:15:46;;;;;;;33.30;17.83;;;;;;;3.26;79.10;98927.44;4483276;32;34025;-69
2021/12/06 08:18:14;;;;;;;35.97;18.50;;;;;;;3.26;79.73;98932.78;4483441;32;34544;-70
2021/12/06 08:20:41;;;;;;;42.55;19.15;;;;;;;2.83;80.45;98928.22;4484024;32;33976;-70
2021/12/06 08:23:09;;;;;;;39.30;19.02;;;;;;;2.90;80.50;98929.00;4483067;32;33832;-69
2021/12/06 08:25:37;;;;;;;34.47;18.10;;;;;;;3.63;77.99;98939.03;4469814;32;34705;-69
2021/12/06 08:28:04;;;;;;;38.15;18.52;;;;;;;3.28;78.12;98933.41;4483836;32;34019;-70
2021/12/06 08:30:32;;;;;;;35.17;18.23;;;;;;;3.00;79.57;98947.25;4483061;32;33476;-70
2021/12/06 08:33:02;;;;;;;33.30;17.60;;;;;;;3.13;79.12;98947.13;4483188;32;34785;-69
2021/12/06 08:35:36;;;;;;;34.65;16.58;;;;;;;2.94;80.49;98954.34;4482112;32;34174;-68
2021/12/06 08:38:04;;;;;;;35.35;18.23;;;;;;;3.21;79.63;98957.59;4483433;32;33918;-69
2021/12/06 08:40:32;;;;;;;34.00;16.90;;;;;;;3.54;78.00;98958.31;4483906;32;33500;-68
2021/12/06 08:42:59;;;;;;;38.58;17.65;;;;;;;3.56;78.16;98962.41;4483951;32;34531;-69
2021/12/06 08:45:28;;;;;;;30.25;16.58;;;;;;;3.14;79.32;98972.09;4483574;32;34986;-67
2021/12/06 08:47:56;;;;;;;35.33;18.12;;;;;;;3.39;79.28;98970.22;4468810;32;34096;-70
2021/12/06 08:50:24;;;;;;;37.30;18.52;;;;;;;3.12;79.93;98977.69;4482880;32;33498;-68
2021/12/06 08:52:53;;;;;;;33.03;17.12;;;;;;;3.24;79.78;98981.28;4483409;32;33796;-70
2021/12/06 08:55:21;;;;;;;31.85;17.00;;;;;;;3.53;78.84;98978.94;4468148;32;33908;-70
2021/12/06 08:57:50;;;;;;;34.17;17.70;;;;;;;3.34;79.74;98980.78;4483129;32;34391;-70
2021/12/06 09:00:24;;;;;;;34.03;16.48;;;;;;;2.79;81.94;98976.09;4483762;32;33195;-68
2021/12/06 09:02:52;;;;;;;31.95;16.87;;;;;;;2.19;84.91;98968.41;4482573;32;33609;-70
2021/12/06 09:05:29;;;;;;;33.42;17.42;;;;;;;2.72;83.53;98980.69;4482966;32;34070;-68
2021/12/06 09:07:57;;;;;;;31.37;16.95;;;;;;;2.50;84.80;98977.50;4483256;32;34060;-68
2021/12/06 09:10:25;;;;;;;29.58;15.68;;;;;;;2.64;84.90;98972.91;4483260;32;33001;-69
2021/12/06 09:12:53;;;;;;;31.40;16.62;;;;;;;2.74;83.91;98972.41;4481736;32;33766;-72
2021/12/06 09:15:22;;;;;;;31.37;17.35;;;;;;;2.28;85.95;98965.50;4484177;32;34896;-75
2021/12/06 09:17:51;;;;;;;26.75;14.87;;;;;;;2.40;85.60;98964.59;4483992;32;34592;-73
2021/12/06 09:20:21;;;;;;;29.27;16.30;;;;;;;2.43;85.30;98964.16;4470000;32;33539;-76
2021/12/06 09:22:49;;;;;;;26.00;14.98;;;;;;;2.83;84.42;98961.22;4484237;32;34030;-71
2021/12/06 09:25:17;;;;;;;28.23;14.68;;;;;;;2.97;82.88;98953.88;4484378;32;34085;-69
2021/12/06 09:27:46;;;;;;;24.70;14.60;;;;;;;3.19;82.31;98946.25;4484114;32;34640;-70
2021/12/06 09:30:19;;;;;;;23.05;13.77;;;;;;;3.22;82.26;98937.81;4484545;32;34566;-76
2021/12/06 09:32:47;;;;;;;23.23;14.00;;;;;;;2.76;83.94;98939.00;4482437;32;34843;-67
2021/12/06 09:35:22;;;;;;;24.20;14.77;;;;;;;2.80;84.81;98929.50;4484041;32;33790;-69
2021/12/06 09:37:49;;;;;;;27.02;14.57;;;;;;;2.94;84.32;98940.09;4483687;32;33704;-75
2021/12/06 09:40:18;;;;;;;26.10;15.63;;;;;;;3.12;82.39;98936.66;4482248;32;33488;-77
2021/12/06 09:42:46;;;;;;;24.48;14.48;;;;;;;3.33;82.73;98940.81;4483706;32;33724;-72
2021/12/06 09:45:18;;;;;;;1.17;1.02;;;;;;;3.46;81.71;98938.78;4483626;32;35105;-74
2021/12/06 09:47:51;;;;;;;27.77;14.73;;;;;;;3.65;81.32;98939.63;4484076;32;34578;-78
2021/12/06 09:51:02;;;;;;;26.83;14.77;;;;;;;3.28;82.61;98941.44;4470406;32;33370;-72
2021/12/06 09:53:37;;;;;;;25.80;15.13;;;;;;;3.79;80.82;98947.53;4483667;32;34751;-70
2021/12/06 09:56:09;;;;;;;24.58;14.87;;;;;;;3.30;81.91;98944.72;4456374;32;32744;-70
2021/12/06 09:58:37;;;;;;;25.23;14.80;;;;;;;3.02;83.56;98929.94;4483562;32;33999;-72
2021/12/06 10:01:09;;;;;;;24.90;14.80;;;;;;;3.89;80.33;98935.22;4484417;32;33533;-70
2021/12/06 10:03:37;;;;;;;23.58;14.60;;;;;;;3.65;80.97;98931.56;4483399;32;33655;-71
2021/12/06 10:06:06;;;;;;;1.20;1.10;;;;;;;3.61;80.99;98921.53;4483232;32;34312;-72
2021/12/06 10:08:36;;;;;;;24.73;15.15;;;;;;;3.91;80.44;98913.53;4469917;32;34025;-72
2021/12/06 10:11:06;;;;;;;26.67;15.95;;;;;;;4.43;78.14;98921.09;4483833;32;33277;-69
2021/12/06 10:13:35;;;;;;;24.12;15.23;;;;;;;3.80;79.13;98912.41;4483194;32;33992;-69
2021/12/06 10:16:03;;;;;;;24.30;15.48;;;;;;;4.17;79.69;98915.03;4483197;32;33923;-72
2021/12/06 10:18:31;;;;;;;22.25;14.48;;;;;;;3.97;79.29;98917.16;4469274;32;34714;-69
2021/12/06 10:21:00;;;;;;;19.08;12.40;;;;;;;3.84;79.98;98918.13;4483420;32;33327;-70
2021/12/06 10:23:28;;;;;;;21.98;13.40;;;;;;;3.54;81.56;98918.06;4483635;32;33674;-73
2021/12/06 10:25:57;;;;;;;21.45;14.15;;;;;;;3.95;79.24;98917.38;4468961;32;33977;-70
2021/12/06 10:28:28;;;;;;;21.60;13.27;;;;;;;3.96;79.36;98912.84;4483048;32;35082;-69
2021/12/06 10:30:59;;;;;;;22.17;13.77;;;;;;;3.95;80.23;98912.00;4483663;32;33547;-68
2021/12/06 10:33:31;;;;;;;22.05;13.32;;;;;;;4.10;79.45;98906.22;4483116;32;34731;-67
2021/12/06 10:36:05;;;;;;;22.00;14.13;;;;;;;3.96;80.24;98910.16;4468991;32;34021;-67
2021/12/06 10:38:36;;;;;;;17.52;12.07;;;;;;;4.17;79.63;98916.88;4483114;32;34316;-67
2021/12/06 10:41:18;;;;;;;18.75;12.23;;;;;;;4.83;76.51;98933.91;4483304;32;33458;-67
2021/12/06 10:43:55;;;;;;;20.98;12.95;;;;;;;4.41;77.55;98950.84;4482867;32;33879;-68
2021/12/06 10:46:23;;;;;;;20.42;13.40;;;;;;;4.82;75.78;98965.34;4483135;32;34230;-68
2021/12/06 10:48:55;;;;;;;18.08;12.37;;;;;;;3.90;79.32;98985.13;4483186;32;34819;-67
2021/12/06 10:51:23;;;;;;;19.12;12.20;;;;;;;3.78;78.59;98988.78;4482749;32;33508;-68
2021/12/06 10:54:19;;;;;;;21.87;14.30;;;;;;;4.24;77.92;98993.63;4481522;32;35351;-69
2021/12/06 10:56:52;;;;;;;20.83;13.85;;;;;;;3.98;78.21;99000.13;4470609;32;34128;-67
2021/12/06 10:59:28;;;;;;;22.33;14.07;;;;;;;3.23;81.96;98997.59;4484700;32;34500;-66
2021/12/06 11:01:59;;;;;;;23.67;14.95;;;;;;;3.55;80.66;98992.16;4483544;32;34010;-67
2021/12/06 11:04:31;;;;;;;25.75;15.77;;;;;;;3.75;80.22;98998.09;4469792;32;33958;-67
2021/12/06 11:07:05;;;;;;;23.50;14.63;;;;;;;4.08;79.16;98991.53;4483870;32;34368;-67
2021/12/06 11:09:37;;;;;;;19.05;12.02;;;;;;;4.07;79.17;98998.78;4470844;32;34846;-67
2021/12/06 11:12:07;;;;;;;18.40;12.88;;;;;;;3.65;80.90;98989.75;4484290;32;34137;-69
2021/12/06 11:14:37;;;;;;;19.67;13.30;;;;;;;3.82;80.11;98990.81;4482661;32;33742;-72
2021/12/06 11:17:18;;;;;;;20.02;13.30;;;;;;;4.15;78.20;98997.66;4483675;32;34007;-72
2021/12/06 11:19:51;;;;;;;18.65;12.55;;;;;;;3.60;80.64;98994.97;4470028;32;34706;-69
2021/12/06 11:22:21;;;;;;;2.80;1.70;;;;;;;3.67;80.30;99003.75;4484246;32;34545;-69
2021/12/06 11:24:51;;;;;;;19.10;12.88;;;;;;;3.49;81.74;99009.94;4483985;32;33876;-69
2021/12/06 11:27:24;;;;;;;19.05;12.65;;;;;;;3.63;81.87;99007.97;4483530;32;33944;-70
2021/12/06 11:30:02;;;;;;;18.70;12.95;;;;;;;3.56;80.83;99008.00;4484404;32;33629;-71
2021/12/06 11:32:36;;;;;;;17.92;12.15;;;;;;;3.41;80.92;99012.88;4484066;32;34207;-68
2021/12/06 11:35:18;;;;;;;18.15;11.65;;;;;;;3.93;80.46;99021.47;4483768;32;33903;-68
2021/12/06 11:37:48;;;;;;;18.85;12.43;;;;;;;3.78;80.13;99018.31;4482447;32;35027;-68
2021/12/06 11:40:20;;;;;;;19.90;12.43;;;;;;;3.83;80.88;99019.28;4484166;32;34779;-69
2021/12/06 11:43:00;;;;;;;19.40;12.70;;;;;;;4.32;78.88;99019.34;4483681;32;34464;-70
2021/12/06 11:45:34;;;;;;;20.45;12.63;;;;;;;4.49;77.38;99016.84;4483210;32;33678;-70
2021/12/06 11:48:10;;;;;;;17.67;11.60;;;;;;;4.70;77.25;99024.41;4482597;32;34192;-72
2021/12/06 11:50:47;;;;;;;18.55;12.02;;;;;;;4.48;77.72;99024.09;4485016;32;33931;-69